.
WxDataArchive / Data Records for 2013-03-01
2013-02-28 March 2013 2013-03-02

Data Records for Friday, 01 March 2013

Time	Temp	Chill	HIndex	Humid	Dewpt	 Wind 	HiWind	WindDir	Rain 	Barom 
-----	----	-----	------	-----	-----	------	------	-------	-----	----- 
00:00	32.4	32.4	32.4	92	30.3	0	0	---	0.00	29.966 
00:05	32.4	32.4	32.4	92	30.3	0	0	---	0.00	29.966 
00:10	32.4	32.4	32.4	92	30.3	0	1	292	0.00	29.966 
00:15	32.4	32.4	32.4	92	30.3	0	1	292	0.00	29.960 
00:20	32.4	32.4	32.4	92	30.3	0	1	292	0.00	29.960 
00:25	32.4	32.4	32.4	92	30.3	0	1	292	0.00	29.960 
00:30	32.4	32.4	32.4	92	30.3	0	0	---	0.00	29.957 
00:35	32.4	32.4	32.4	92	30.3	0	0	---	0.00	29.957 
00:40	32.4	32.4	32.4	92	30.3	0	0	---	0.00	29.957 
00:45	32.2	32.2	32.2	92	30.1	0	1	292	0.00	29.960 
00:50	32.2	32.2	32.2	92	30.1	0	0	---	0.00	29.960 
00:55	32.2	32.2	32.2	92	30.1	0	0	---	0.00	29.960 
01:00	32.2	32.2	32.2	92	30.1	0	1	292	0.00	29.961 
01:05	32.2	32.2	32.2	92	30.1	0	0	---	0.00	29.961 
01:10	32.2	32.2	32.2	92	30.1	0	0	---	0.00	29.961 
01:15	32.2	32.2	32.2	92	30.1	0	0	---	0.00	29.966 
01:20	32.2	32.2	32.2	92	30.1	0	0	---	0.00	29.966 
01:25	32.2	32.2	32.2	92	30.1	0	0	---	0.00	29.966 
01:30	32.2	32.2	32.2	92	30.1	0	0	---	0.00	29.967 
01:35	32.2	32.2	32.2	92	30.1	0	0	---	0.00	29.967 
01:40	32.2	32.2	32.2	92	30.1	0	0	---	0.00	29.967 
01:45	32.2	32.2	32.2	92	30.1	0	0	---	0.00	29.966 
01:50	32.2	32.2	32.2	92	30.1	0	0	---	0.00	29.966 
01:55	32.2	32.2	32.2	92	30.1	0	1	292	0.00	29.966 
02:00	32.2	32.2	32.2	92	30.1	0	0	---	0.00	29.962 
02:05	32.2	32.2	32.2	92	30.1	0	0	---	0.00	29.962 
02:10	32.2	32.2	32.2	92	30.1	0	1	292	0.00	29.962 
02:15	32.2	32.2	32.2	92	30.1	0	1	292	0.00	29.964 
02:20	32.2	32.2	32.2	92	30.1	0	1	292	0.00	29.964 
02:25	32.2	32.2	32.2	92	30.1	0	0	---	0.00	29.964 
02:30	32.2	32.2	32.2	92	30.1	0	2	292	0.00	29.960 
02:35	32.2	32.2	32.2	92	30.1	0	2	292	0.00	29.960 
02:40	32.2	32.2	32.2	92	30.1	0	2	292	0.00	29.960 
02:45	32.2	32.2	32.2	92	30.1	0	1	292	0.00	29.957 
02:50	32.1	32.1	32.1	92	30.0	0	2	292	0.00	29.957 
02:55	32.1	32.1	32.1	92	30.0	0	1	292	0.00	29.957 
03:00	32.1	32.1	32.1	92	30.0	0	1	292	0.00	29.958 
03:05	32.1	32.1	32.1	92	30.0	0	1	292	0.00	29.958 
03:10	31.9	31.9	31.9	92	29.8	0	1	292	0.00	29.958 
03:15	31.9	31.9	31.9	92	29.8	0	1	292	0.00	29.957 
03:20	31.9	31.9	31.9	92	29.8	0	2	292	0.00	29.957 
03:25	31.9	31.9	31.9	92	29.8	0	1	292	0.00	29.957 
03:30	31.9	31.9	31.9	91	29.6	0	1	292	0.00	29.957 
03:35	31.9	31.9	31.9	91	29.6	0	2	315	0.00	29.957 
03:40	31.9	31.9	31.9	91	29.6	0	1	315	0.00	29.957 
03:45	31.9	31.9	31.9	91	29.6	1	5	22	0.00	29.957 
03:50	31.8	31.8	31.8	90	29.2	2	6	112	0.00	29.957 
03:55	31.6	31.6	31.6	90	29.0	1	5	90	0.00	29.957 
04:00	31.5	31.5	31.5	89	28.6	1	7	112	0.00	29.961 
04:05	31.3	31.3	31.3	89	28.4	1	4	112	0.00	29.961 
04:10	31.3	31.3	31.3	89	28.4	1	3	112	0.00	29.961 
04:15	31.3	31.3	31.3	88	28.2	1	4	0	0.00	29.965 
04:20	31.2	31.2	31.2	88	28.1	1	5	112	0.00	29.965 
04:25	31.2	31.2	31.2	88	28.1	1	3	90	0.00	29.965 
04:30	31.0	31.0	31.0	87	27.6	1	6	68	0.00	29.971 
04:35	31.0	31.0	31.0	87	27.6	1	6	90	0.00	29.971 
04:40	30.9	30.9	30.9	87	27.5	0	2	112	0.00	29.971 
04:45	30.9	30.9	30.9	86	27.2	1	4	90	0.00	29.974 
04:50	30.7	30.7	30.7	86	27.0	1	4	112	0.00	29.974 
04:55	30.9	30.9	30.9	86	27.2	1	4	135	0.00	29.974 
05:00	30.9	30.9	30.9	86	27.2	0	3	68	0.00	29.976 
05:05	30.9	30.9	30.9	86	27.2	0	2	68	0.00	29.976 
05:10	30.7	30.7	30.7	86	27.0	0	2	68	0.00	29.976 
05:15	30.7	30.7	30.7	86	27.0	1	3	68	0.00	29.980 
05:20	30.7	30.7	30.7	86	27.0	0	1	68	0.00	29.980 
05:25	30.7	30.7	30.7	86	27.0	0	1	68	0.00	29.980 
05:30	30.7	30.7	30.7	85	26.7	1	5	68	0.00	29.986 
05:35	30.7	30.7	30.7	85	26.7	1	3	90	0.00	29.986 
05:40	30.7	30.7	30.7	85	26.7	0	4	90	0.00	29.986 
05:45	30.6	30.6	30.6	85	26.6	1	3	90	0.00	29.989 
05:50	30.6	30.6	30.6	85	26.6	1	3	90	0.00	29.989 
05:55	30.6	30.6	30.6	85	26.6	1	3	90	0.00	29.989 
06:00	30.4	30.4	30.4	85	26.4	0	2	68	0.00	29.993 
06:05	30.4	30.4	30.4	84	26.2	1	5	68	0.00	29.993 
06:10	30.3	30.3	30.3	84	26.1	0	4	338	0.00	29.993 
06:15	30.1	30.1	30.1	84	25.9	0	2	338	0.00	29.995 
06:20	30.1	30.1	30.1	83	25.6	1	4	112	0.00	29.995 
06:25	30.1	30.1	30.1	83	25.6	1	3	135	0.00	29.995 
06:30	30.0	30.0	30.0	83	25.5	0	2	0	0.00	30.001 
06:35	30.0	30.0	30.0	82	25.2	0	3	0	0.00	30.001 
06:40	30.0	30.0	30.0	82	25.2	0	2	22	0.00	30.001 
06:45	30.0	30.0	30.0	82	25.2	0	3	22	0.00	30.005 
06:50	30.0	30.0	30.0	82	25.2	0	2	112	0.00	30.005 
06:55	30.0	30.0	30.0	82	25.2	0	2	112	0.00	30.005 
07:00	29.8	29.8	29.8	82	25.0	1	4	112	0.00	30.007 
07:05	29.8	29.8	29.8	82	25.0	0	2	0	0.00	30.007 
07:10	29.8	29.8	29.8	82	25.0	0	2	0	0.00	30.007 
07:15	29.7	29.7	29.7	82	24.9	0	2	22	0.00	30.011 
07:20	29.7	29.7	29.7	81	24.6	0	2	22	0.00	30.011 
07:25	29.7	29.7	29.7	81	24.6	1	3	0	0.00	30.011 
07:30	29.7	29.7	29.7	81	24.6	0	2	112	0.00	30.017 
07:35	29.7	29.7	29.7	81	24.6	0	4	90	0.00	30.017 
07:40	29.7	29.7	29.7	81	24.6	0	2	90	0.00	30.017 
07:45	29.5	29.5	29.5	81	24.4	1	4	90	0.00	30.024 
07:50	29.5	29.5	29.5	81	24.4	1	3	90	0.00	30.024 
07:55	29.5	29.5	29.5	81	24.4	1	4	45	0.00	30.024 
08:00	29.5	29.5	29.5	81	24.4	0	2	45	0.00	30.031 
08:05	29.5	29.5	29.5	81	24.4	0	3	112	0.00	30.031 
08:10	29.5	29.5	29.5	81	24.4	0	2	112	0.00	30.031 
08:15	29.5	29.5	29.5	80	24.1	0	2	315	0.00	30.038 
08:20	29.5	29.5	29.5	81	24.4	0	2	45	0.00	30.038 
08:25	29.5	29.5	29.5	80	24.1	0	2	112	0.00	30.038 
08:30	29.5	29.5	29.5	81	24.4	0	1	112	0.00	30.041 
08:35	29.5	29.5	29.5	80	24.1	1	3	90	0.00	30.041 
08:40	29.4	29.4	29.4	80	24.0	1	4	90	0.00	30.041 
08:45	29.4	29.4	29.4	80	24.0	1	5	90	0.00	30.047 
08:50	29.4	29.4	29.4	80	24.0	1	4	22	0.00	30.047 
08:55	29.4	29.4	29.4	80	24.0	1	3	90	0.00	30.047 
09:00	29.5	29.5	29.5	80	24.1	0	2	90	0.00	30.051 
09:05	29.5	29.5	29.5	80	24.1	1	4	112	0.00	30.051 
09:10	29.5	29.5	29.5	80	24.1	1	4	112	0.00	30.051 
09:15	29.7	29.7	29.7	80	24.3	0	1	135	0.00	30.052 
09:20	29.7	29.7	29.7	80	24.3	1	4	22	0.00	30.052 
09:25	29.7	29.7	29.7	80	24.3	0	2	90	0.00	30.052 
09:30	29.7	29.7	29.7	80	24.3	0	2	90	0.00	30.053 
09:35	29.8	29.8	29.8	80	24.4	0	3	90	0.00	30.053 
09:40	29.8	29.8	29.8	80	24.4	0	2	90	0.00	30.053 
09:45	29.8	29.8	29.8	80	24.4	0	3	90	0.00	30.052 
09:50	29.8	29.8	29.8	80	24.4	0	2	338	0.00	30.052 
09:55	29.8	29.8	29.8	80	24.4	1	4	90	0.00	30.052 
10:00	29.8	29.8	29.8	79	24.1	1	3	45	0.00	30.055 
10:05	29.8	29.8	29.8	79	24.1	1	4	90	0.00	30.055 
10:10	30.0	30.0	30.0	79	24.3	1	4	22	0.00	30.055 
10:15	30.0	30.0	30.0	79	24.3	0	3	0	0.00	30.057 
10:20	30.1	30.1	30.1	79	24.4	1	4	135	0.00	30.057 
10:25	30.3	30.3	30.3	79	24.6	1	4	135	0.00	30.057 
10:30	30.3	30.3	30.3	78	24.3	2	4	112	0.00	30.057 
10:35	30.4	30.4	30.4	78	24.4	1	5	90	0.00	30.057 
10:40	30.6	30.6	30.6	78	24.6	1	3	90	0.00	30.057 
10:45	30.6	30.6	30.6	77	24.3	1	6	90	0.00	30.057 
10:50	30.6	30.6	30.6	77	24.3	1	4	112	0.00	30.057 
10:55	30.9	30.9	30.9	77	24.6	1	3	0	0.00	30.057 
11:00	31.0	31.0	31.0	77	24.7	0	2	112	0.00	30.060 
11:05	31.2	31.2	31.2	76	24.5	0	3	338	0.00	30.060 
11:10	31.2	31.2	31.2	75	24.2	1	3	338	0.00	30.060 
11:15	31.2	31.2	31.2	75	24.2	1	4	112	0.00	30.069 
11:20	31.5	31.5	31.5	75	24.5	1	4	338	0.00	30.069 
11:25	31.5	31.5	31.5	74	24.2	1	5	0	0.00	30.069 
11:30	31.6	31.6	31.6	74	24.3	0	4	135	0.00	30.068 
11:35	31.6	31.6	31.6	74	24.3	1	3	135	0.00	30.068 
11:40	31.6	31.6	31.6	72	23.6	1	6	90	0.00	30.068 
11:45	31.6	31.6	31.6	71	23.3	1	5	0	0.00	30.068 
11:50	31.5	31.5	31.5	70	22.9	1	3	315	0.00	30.068 
11:55	31.6	31.6	31.6	71	23.3	1	4	0	0.00	30.068 
12:00	31.8	31.8	31.8	71	23.5	1	4	112	0.00	30.068 
12:05	31.8	31.8	31.8	70	23.2	1	3	0	0.00	30.068 
12:10	31.8	31.8	31.8	70	23.2	1	3	22	0.00	30.068 
12:15	31.9	31.9	31.9	70	23.2	1	4	338	0.00	30.068 
12:20	32.1	32.1	32.1	70	23.4	2	5	90	0.00	30.068 
12:25	32.1	32.1	32.1	69	23.1	1	5	112	0.00	30.068 
12:30	31.9	31.9	31.9	69	22.9	1	3	68	0.00	30.067 
12:35	31.5	31.5	31.5	69	22.5	1	3	338	0.00	30.067 
12:40	31.6	31.6	31.6	70	23.0	0	2	338	0.00	30.067 
12:45	31.8	31.8	31.8	70	23.2	1	5	0	0.00	30.062 
12:50	31.6	31.6	31.6	69	22.6	1	3	0	0.00	30.062 
12:55	31.6	31.6	31.6	69	22.6	1	2	90	0.00	30.062 
13:00	31.5	31.5	31.5	69	22.5	1	3	0	0.00	30.059 
13:05	31.5	31.5	31.5	69	22.5	1	4	22	0.00	30.059 
13:10	31.3	31.3	31.3	69	22.3	2	5	112	0.00	30.059 
13:15	31.3	31.3	31.3	69	22.3	1	5	68	0.00	30.061 
13:20	31.5	31.5	31.5	70	22.9	0	3	112	0.00	30.061 
13:25	31.8	31.8	31.8	70	23.2	1	4	90	0.00	30.061 
13:30	31.8	31.8	31.8	68	22.5	1	6	135	0.00	30.056 
13:35	31.6	31.6	31.6	69	22.6	0	3	338	0.00	30.056 
13:40	31.6	31.6	31.6	69	22.6	1	5	90	0.00	30.056 
13:45	31.5	31.5	31.5	68	22.2	1	3	338	0.00	30.055 
13:50	31.5	31.5	31.5	67	21.8	1	5	112	0.00	30.055 
13:55	31.2	31.2	31.2	67	21.5	2	7	315	0.00	30.055 
14:00	30.9	30.9	30.9	67	21.3	2	6	338	0.00	30.057 
14:05	30.9	30.9	30.9	68	21.6	1	3	338	0.00	30.057 
14:10	30.7	30.7	30.7	68	21.4	1	4	338	0.00	30.057 
14:15	30.7	30.7	30.7	68	21.4	1	5	112	0.00	30.058 
14:20	30.7	30.7	30.7	68	21.4	1	3	0	0.00	30.058 
14:25	30.7	30.7	30.7	69	21.8	0	3	0	0.00	30.058 
14:30	30.9	30.9	30.9	70	22.3	1	4	0	0.00	30.056 
14:35	30.7	30.7	30.7	70	22.1	1	4	22	0.00	30.056 
14:40	30.7	30.7	30.7	70	22.1	1	3	90	0.00	30.056 
14:45	30.4	30.4	30.4	69	21.5	1	5	338	0.00	30.056 
14:50	30.3	30.3	30.3	69	21.4	1	3	338	0.00	30.056 
14:55	30.1	30.1	30.1	70	21.5	1	6	112	0.00	30.056 
15:00	29.8	29.8	29.8	70	21.2	1	4	112	0.00	30.055 
15:05	29.5	29.5	29.5	70	20.9	1	4	112	0.00	30.055 
15:10	29.4	29.4	29.4	69	20.5	1	4	338	0.00	30.055 
15:15	29.3	29.3	29.3	70	20.8	1	5	338	0.00	30.059 
15:20	29.3	29.3	29.3	70	20.8	1	4	68	0.00	30.059 
15:25	29.3	29.3	29.3	70	20.8	1	5	112	0.00	30.059 
15:30	29.1	29.1	29.1	70	20.6	2	6	90	0.00	30.059 
15:35	29.0	29.0	29.0	69	20.1	2	7	112	0.00	30.059 
15:40	28.8	28.8	28.8	69	19.9	1	3	22	0.00	30.059 
15:45	29.0	29.0	29.0	70	20.5	0	2	68	0.00	30.060 
15:50	28.8	28.8	28.8	70	20.3	1	3	0	0.00	30.060 
15:55	28.7	28.7	28.7	70	20.2	1	4	112	0.00	30.060 
16:00	28.5	28.5	28.5	69	19.6	1	2	0	0.00	30.064 
16:05	28.5	28.5	28.5	69	19.6	1	5	90	0.00	30.064 
16:10	28.5	28.5	28.5	69	19.6	1	3	338	0.00	30.064 
16:15	28.5	28.5	28.5	69	19.6	1	2	338	0.00	30.069 
16:20	28.5	28.5	28.5	69	19.6	1	4	45	0.00	30.069 
16:25	28.7	28.7	28.7	69	19.8	1	3	90	0.00	30.069 
16:30	28.7	28.7	28.7	69	19.8	0	2	22	0.00	30.070 
16:35	28.7	28.7	28.7	69	19.8	1	3	338	0.00	30.070 
16:40	28.7	28.7	28.7	68	19.5	1	4	68	0.00	30.070 
16:45	28.5	28.5	28.5	68	19.3	1	3	112	0.00	30.074 
16:50	28.5	28.5	28.5	68	19.3	1	2	135	0.00	30.074 
16:55	28.4	28.4	28.4	68	19.2	1	3	112	0.00	30.074 
17:00	28.4	28.4	28.4	69	19.5	0	3	112	0.00	30.079 
17:05	28.2	28.2	28.2	69	19.4	1	3	22	0.00	30.079 
17:10	28.1	28.1	28.1	69	19.3	0	2	0	0.00	30.079 
17:15	27.9	27.9	27.9	69	19.1	0	2	0	0.00	30.082 
17:20	27.9	27.9	27.9	69	19.1	0	1	0	0.00	30.082 
17:25	28.1	28.1	28.1	70	19.6	1	4	112	0.00	30.082 
17:30	28.1	28.1	28.1	71	19.9	0	2	90	0.00	30.083 
17:35	27.9	27.9	27.9	71	19.7	0	1	90	0.00	30.083 
17:40	27.9	27.9	27.9	70	19.4	1	3	90	0.00	30.083 
17:45	27.8	27.8	27.8	69	19.0	1	3	112	0.00	30.083 
17:50	27.9	27.9	27.9	70	19.4	0	2	45	0.00	30.083 
17:55	27.8	27.8	27.8	70	19.3	1	5	0	0.00	30.083 
18:00	27.6	27.6	27.6	70	19.1	1	2	338	0.00	30.089 
18:05	27.6	27.6	27.6	70	19.1	1	3	112	0.00	30.089 
18:10	27.6	27.6	27.6	69	18.8	1	3	112	0.00	30.089 
18:15	27.5	27.5	27.5	69	18.7	0	3	112	0.00	30.091 
18:20	27.3	27.3	27.3	69	18.5	0	2	90	0.00	30.091 
18:25	27.3	27.3	27.3	69	18.5	0	2	90	0.00	30.091 
18:30	27.3	27.3	27.3	69	18.5	0	2	90	0.00	30.095 
18:35	27.5	27.5	27.5	69	18.7	0	2	90	0.00	30.095 
18:40	27.5	27.5	27.5	69	18.7	0	1	90	0.00	30.095 
18:45	27.3	27.3	27.3	68	18.2	1	5	90	0.00	30.101 
18:50	27.3	27.3	27.3	68	18.2	1	3	22	0.00	30.101 
18:55	27.3	27.3	27.3	69	18.5	1	3	112	0.00	30.101 
19:00	27.3	27.3	27.3	69	18.5	0	3	315	0.00	30.105 
19:05	27.2	27.2	27.2	69	18.4	0	1	315	0.00	30.105 
19:10	27.2	27.2	27.2	70	18.7	1	3	112	0.00	30.105 
19:15	27.0	27.0	27.0	72	19.2	1	4	338	0.00	30.110 
19:20	27.0	27.0	27.0	69	18.2	0	2	338	0.00	30.110 
19:25	27.0	27.0	27.0	69	18.2	0	2	338	0.00	30.110 
19:30	26.9	26.9	26.9	69	18.1	0	3	338	0.00	30.112 
19:35	26.9	26.9	26.9	69	18.1	0	2	0	0.00	30.112 
19:40	26.9	26.9	26.9	69	18.1	0	1	0	0.00	30.112 
19:45	26.9	26.9	26.9	70	18.4	1	4	68	0.00	30.112 
19:50	26.7	26.7	26.7	70	18.3	1	5	90	0.00	30.112 
19:55	26.7	26.7	26.7	70	18.3	1	4	90	0.00	30.112 
20:00	26.7	26.7	26.7	70	18.3	1	6	112	0.00	30.113 
20:05	26.6	26.6	26.6	70	18.2	1	3	90	0.00	30.113 
20:10	26.6	26.6	26.6	71	18.5	0	3	90	0.00	30.113 
20:15	26.6	26.6	26.6	72	18.8	0	3	112	0.00	30.114 
20:20	26.6	26.6	26.6	72	18.8	1	5	112	0.00	30.114 
20:25	26.6	26.6	26.6	72	18.8	0	2	68	0.00	30.114 
20:30	26.6	26.6	26.6	73	19.1	1	5	68	0.00	30.121 
20:35	26.4	26.4	26.4	72	18.6	1	4	112	0.00	30.121 
20:40	26.3	26.3	26.3	72	18.5	1	3	135	0.00	30.121 
20:45	26.1	26.1	26.1	72	18.3	1	3	338	0.00	30.123 
20:50	26.0	26.0	26.0	72	18.2	1	3	45	0.00	30.123 
20:55	25.8	25.8	25.8	71	17.7	0	3	112	0.00	30.123 
21:00	25.8	25.8	25.8	70	17.4	1	4	112	0.00	30.126 
21:05	25.8	25.8	25.8	70	17.4	1	4	45	0.00	30.126 
21:10	25.8	25.8	25.8	70	17.4	0	2	68	0.00	30.126 
21:15	25.8	25.8	25.8	70	17.4	1	4	112	0.00	30.130 
21:20	25.7	25.7	25.7	70	17.3	0	2	45	0.00	30.130 
21:25	25.7	25.7	25.7	70	17.3	1	3	338	0.00	30.130 
21:30	25.7	25.7	25.7	69	17.0	0	2	338	0.00	30.130 
21:35	25.6	25.6	25.6	69	16.9	0	2	338	0.00	30.130 
21:40	25.7	25.7	25.7	70	17.3	0	1	338	0.00	30.130 
21:45	25.7	25.7	25.7	70	17.3	0	3	68	0.00	30.133 
21:50	25.7	25.7	25.7	70	17.3	0	2	68	0.00	30.133 
21:55	25.7	25.7	25.7	70	17.3	0	2	68	0.00	30.133 
22:00	25.7	25.7	25.7	70	17.3	0	2	22	0.00	30.132 
22:05	25.8	25.8	25.8	70	17.4	0	2	22	0.00	30.132 
22:10	25.7	25.7	25.7	70	17.3	1	6	135	0.00	30.132 
22:15	25.8	25.8	25.8	71	17.7	0	2	22	0.00	30.129 
22:20	25.8	25.8	25.8	71	17.7	0	3	112	0.00	30.129 
22:25	25.7	25.7	25.7	71	17.6	0	2	315	0.00	30.129 
22:30	25.7	25.7	25.7	71	17.6	0	3	315	0.00	30.129 
22:35	25.7	25.7	25.7	71	17.6	0	3	315	0.00	30.129 
22:40	25.7	25.7	25.7	71	17.6	0	2	0	0.00	30.129 
22:45	25.7	25.7	25.7	72	17.9	0	3	338	0.00	30.127 
22:50	25.7	25.7	25.7	72	17.9	1	2	338	0.00	30.127 
22:55	25.7	25.7	25.7	72	17.9	1	4	22	0.00	30.127 
23:00	25.7	25.7	25.7	72	17.9	0	3	90	0.00	30.126 
23:05	25.7	25.7	25.7	72	17.9	0	1	90	0.00	30.126 
23:10	25.7	25.7	25.7	73	18.3	0	1	90	0.00	30.126 
23:15	25.7	25.7	25.7	73	18.3	0	2	45	0.00	30.124 
23:20	25.7	25.7	25.7	73	18.3	0	4	45	0.00	30.124 
23:25	25.6	25.6	25.6	73	18.2	1	4	22	0.00	30.124 
23:30	25.6	25.6	25.6	72	17.8	1	4	90	0.00	30.124 
23:35	25.6	25.6	25.6	72	17.8	1	3	315	0.00	30.124 
23:40	25.6	25.6	25.6	73	18.2	0	2	338	0.00	30.124 
23:45	25.6	25.6	25.6	72	17.8	0	3	338	0.00	30.116 
23:50	25.6	25.6	25.6	72	17.8	1	2	68	0.00	30.116 
23:55	25.7	25.7	25.7	72	17.9	0	3	112	0.00	30.116 

CoCoRaHS
IN-AL-39
A2 Web Hosting
Creative Commons License
GoDaddy
search engine by freefind advanced

loaded 2018-11-17 14:02:50 • last modified 2010-11-18 10:43:29
Privacy PolicyDisclaimer
• wx.awcolley.com is powered by PmWiki v.2002016 •
• all content (unless otherwise noted) © 2018 A W Colley